createdAt,value
2018-12-11T00:02:12.211Z,99375.05
2018-12-11T00:04:38.213Z,99380.13
2018-12-11T00:07:04.188Z,99383.95
2018-12-11T00:09:30.165Z,99377.69
2018-12-11T00:11:56.124Z,99379.81
2018-12-11T00:14:22.079Z,99370.94
2018-12-11T00:16:48.575Z,99378.55
2018-12-11T00:19:14.522Z,99381.94
2018-12-11T00:21:40.500Z,99373.91
2018-12-11T00:24:06.540Z,99381.94
2018-12-11T00:26:32.524Z,99388.62
2018-12-11T00:28:58.493Z,99388.64
2018-12-11T00:31:24.454Z,99384.05
2018-12-11T00:33:50.436Z,99389.11
2018-12-11T00:36:16.379Z,99385.33
2018-12-11T00:38:42.360Z,99397.05
2018-12-11T00:41:08.318Z,99390.70
2018-12-11T00:43:34.311Z,99389.89
2018-12-11T00:46:00.263Z,99390.75
2018-12-11T00:48:26.270Z,99396.61
2018-12-11T00:50:52.270Z,99399.63
2018-12-11T00:53:18.271Z,99403.75
2018-12-11T00:55:44.240Z,99401.28
2018-12-11T00:58:10.200Z,99406.33
2018-12-11T01:00:36.173Z,99403.36
2018-12-11T01:03:02.173Z,99401.29
2018-12-11T01:05:28.128Z,99397.50
2018-12-11T01:07:54.130Z,99399.13
2018-12-11T01:10:20.120Z,99399.56
2018-12-11T01:12:47.007Z,99399.51
2018-12-11T01:15:12.968Z,99401.16
2018-12-11T01:17:38.928Z,99394.81
2018-12-11T01:20:04.970Z,99401.52
2018-12-11T01:22:30.940Z,99401.52
2018-12-11T01:24:56.900Z,99402.38
2018-12-11T01:27:22.840Z,99406.91
2018-12-11T01:29:48.812Z,99412.84
2018-12-11T01:32:14.784Z,99407.37
2018-12-11T01:34:40.747Z,99418.84
2018-12-11T01:37:06.697Z,99422.61
2018-12-11T01:39:32.648Z,99423.03
2018-12-11T01:41:58.608Z,99429.33
2018-12-11T01:44:24.579Z,99425.14
2018-12-11T01:46:54.383Z,99430.52
2018-12-11T01:49:20.383Z,99424.28
2018-12-11T01:51:47.252Z,99426.38
2018-12-11T01:54:13.232Z,99419.64
2018-12-11T01:56:39.220Z,99423.77
2018-12-11T01:59:05.179Z,99426.77
2018-12-11T02:01:31.178Z,99429.39
2018-12-11T02:03:57.152Z,99434.05
2018-12-11T02:06:23.951Z,99432.38
2018-12-11T02:08:49.940Z,99428.55
2018-12-11T02:11:15.913Z,99433.17
2018-12-11T02:13:41.890Z,99433.20
2018-12-11T02:16:07.970Z,99434.05
2018-12-11T02:18:34.003Z,99431.06
2018-12-11T02:20:59.999Z,99430.26
2018-12-11T02:23:25.982Z,99434.44
2018-12-11T02:25:51.967Z,99431.98
2018-12-11T02:28:17.918Z,99442.00
2018-12-11T02:30:43.923Z,99442.91
2018-12-11T02:33:09.891Z,99439.48
2018-12-11T02:35:35.887Z,99441.61
2018-12-11T02:38:01.930Z,99438.68
2018-12-11T02:40:27.935Z,99443.31
2018-12-11T02:42:53.967Z,99431.92
2018-12-11T02:45:20.003Z,99435.30
2018-12-11T02:47:45.967Z,99432.72
2018-12-11T02:50:11.942Z,99432.72
2018-12-11T02:52:37.900Z,99429.05
2018-12-11T02:55:03.878Z,99430.27
2018-12-11T02:57:29.858Z,99431.13
2018-12-11T02:59:55.837Z,99429.81
2018-12-11T03:02:21.812Z,99432.77
2018-12-11T03:04:47.985Z,99429.01
2018-12-11T03:07:14.002Z,99418.93
2018-12-11T03:09:40.005Z,99420.19
2018-12-11T03:12:06.001Z,99421.45
2018-12-11T03:14:32.034Z,99422.31
2018-12-11T03:16:58.001Z,99426.94
2018-12-11T03:19:24.001Z,99430.72
2018-12-11T03:21:49.989Z,99426.48
2018-12-11T03:24:15.953Z,99431.16
2018-12-11T03:26:41.939Z,99425.62
2018-12-11T03:29:07.947Z,99430.20
2018-12-11T03:31:33.954Z,99424.38
2018-12-11T03:34:00.041Z,99432.78
2018-12-11T03:36:26.013Z,99428.59
2018-12-11T03:38:52.010Z,99430.72
2018-12-11T03:41:17.977Z,99434.45
2018-12-11T03:43:43.972Z,99433.23
2018-12-11T03:46:09.923Z,99425.67
2018-12-11T03:48:35.922Z,99437.47
2018-12-11T03:51:01.887Z,99431.07
2018-12-11T03:53:27.826Z,99426.53
2018-12-11T03:55:53.779Z,99429.05
2018-12-11T03:58:19.750Z,99420.59
2018-12-11T04:00:45.738Z,99433.23
2018-12-11T04:03:12.775Z,99429.87
2018-12-11T04:05:38.754Z,99431.85
2018-12-11T04:08:04.739Z,99426.89
2018-12-11T04:10:30.745Z,99426.09
2018-12-11T04:12:56.957Z,99434.45
2018-12-11T04:15:22.953Z,99432.38
2018-12-11T04:17:48.939Z,99430.72
2018-12-11T04:20:14.974Z,99428.59
2018-12-11T04:22:41.929Z,99425.68
2018-12-11T04:25:07.921Z,99429.05
2018-12-11T04:27:34.082Z,99429.48
2018-12-11T04:30:00.063Z,99432.79
2018-12-11T04:32:26.015Z,99431.13
2018-12-11T04:34:51.979Z,99422.64
2018-12-11T04:37:17.927Z,99435.31
2018-12-11T04:39:44.742Z,99428.59
2018-12-11T04:42:10.704Z,99423.55
2018-12-11T04:44:36.640Z,99421.44
2018-12-11T04:47:02.609Z,99428.20
2018-12-11T04:49:28.805Z,99431.98
2018-12-11T04:51:54.799Z,99418.52
2018-12-11T04:54:20.748Z,99418.56
2018-12-11T04:56:51.188Z,99423.19
2018-12-11T04:59:17.132Z,99412.23
2018-12-11T05:01:43.165Z,99419.38
2018-12-11T05:04:09.144Z,99409.25
2018-12-11T05:06:35.117Z,99411.77
2018-12-11T05:09:01.085Z,99416.41
2018-12-11T05:11:27.093Z,99418.12
2018-12-11T05:13:53.164Z,99414.34
2018-12-11T05:16:19.272Z,99416.41
2018-12-11T05:18:45.255Z,99409.31
2018-12-11T05:21:11.248Z,99419.38
2018-12-11T05:23:37.230Z,99409.34
2018-12-11T05:26:03.215Z,99411.42
2018-12-11T05:28:29.264Z,99411.00
2018-12-11T05:30:55.289Z,99413.54
2018-12-11T05:33:21.297Z,99419.41
2018-12-11T05:35:47.299Z,99412.72
2018-12-11T05:38:13.336Z,99408.07
2018-12-11T05:40:39.335Z,99415.64
2018-12-11T05:43:05.357Z,99407.67
2018-12-11T05:45:35.679Z,99413.11
2018-12-11T05:48:01.709Z,99415.23
2018-12-11T05:50:28.670Z,99413.11
2018-12-11T05:52:55.049Z,99410.17
2018-12-11T05:55:21.085Z,99396.70
2018-12-11T05:57:47.084Z,99398.00
2018-12-11T06:00:13.060Z,99398.78
2018-12-11T06:02:39.048Z,99410.97
2018-12-11T06:05:05.059Z,99395.85
2018-12-11T06:07:31.964Z,99376.56
2018-12-11T06:09:57.918Z,99375.72
2018-12-11T06:12:23.975Z,99366.48
2018-12-11T06:14:50.010Z,99384.10
2018-12-11T06:17:15.968Z,99376.55
2018-12-11T06:29:48.646Z,99398.39
2018-12-11T06:32:14.661Z,99393.78
2018-12-11T06:34:40.651Z,99395.05
2018-12-11T06:37:11.657Z,99392.11
2018-12-11T06:39:37.644Z,99392.10
2018-12-11T06:42:03.610Z,99397.51
2018-12-11T06:44:29.606Z,99402.56
2018-12-11T06:46:55.648Z,99406.36
2018-12-11T06:49:21.615Z,99410.99
2018-12-11T06:51:47.596Z,99403.03
2018-12-11T06:54:13.537Z,99429.84
2018-12-11T06:56:39.494Z,99403.34
2018-12-11T06:59:05.464Z,99423.47
2018-12-11T07:01:31.427Z,99416.79
2018-12-11T07:03:57.407Z,99423.97
2018-12-11T07:06:23.464Z,99417.66
2018-12-11T07:08:49.489Z,99423.91
2018-12-11T07:11:15.437Z,99423.48
2018-12-11T07:13:41.428Z,99418.46
2018-12-11T07:16:07.401Z,99419.24
2018-12-11T07:18:34.344Z,99428.44
2018-12-11T07:21:00.325Z,99433.41
2018-12-11T07:23:26.269Z,99433.96
2018-12-11T07:25:52.219Z,99448.20
2018-12-11T07:28:18.208Z,99444.42
2018-12-11T07:30:44.215Z,99439.39
2018-12-11T07:33:10.239Z,99436.09
2018-12-11T07:35:36.226Z,99438.57
2018-12-11T07:38:02.282Z,99440.27
2018-12-11T07:40:28.240Z,99439.88
2018-12-11T07:42:54.219Z,99440.67
2018-12-11T07:45:20.253Z,99434.73
2018-12-11T07:47:46.252Z,99442.68
2018-12-11T07:50:12.927Z,99443.99
2018-12-11T07:52:39.926Z,99441.19
2018-12-11T07:55:05.880Z,99453.33
2018-12-11T07:57:31.901Z,99451.12
2018-12-11T07:59:57.898Z,99453.70
2018-12-11T08:02:23.856Z,99453.57
2018-12-11T08:04:49.843Z,99466.56
2018-12-11T08:07:15.804Z,99456.91
2018-12-11T08:09:41.791Z,99451.17
2018-12-11T08:12:08.405Z,99456.16
2018-12-11T08:14:34.517Z,99456.50
2018-12-11T08:17:00.467Z,99469.20
2018-12-11T08:19:26.451Z,99455.31
2018-12-11T08:21:52.513Z,99474.13
2018-12-11T08:24:18.476Z,99459.09
2018-12-11T08:26:44.434Z,99476.30
2018-12-11T08:29:10.392Z,99475.41
2018-12-11T08:31:37.018Z,99484.69
2018-12-11T08:34:03.954Z,99491.77
2018-12-11T08:36:30.036Z,99487.08
2018-12-11T08:38:55.993Z,99490.45
2018-12-11T08:41:21.979Z,99488.81
2018-12-11T08:43:48.537Z,99479.64
2018-12-11T08:46:14.490Z,99488.06
2018-12-11T08:48:41.340Z,99494.78
2018-12-11T08:51:07.339Z,99492.66
2018-12-11T08:53:33.690Z,99489.73
2018-12-11T08:55:59.657Z,99500.63
2018-12-11T08:58:25.645Z,99507.39
2018-12-11T09:00:51.600Z,99509.91
2018-12-11T09:03:17.617Z,99509.39
2018-12-11T09:05:43.587Z,99511.38
2018-12-11T09:08:09.571Z,99516.55
2018-12-11T09:10:35.519Z,99509.84
2018-12-11T09:13:01.513Z,99510.38
2018-12-11T09:15:27.460Z,99528.34
2018-12-11T09:17:53.451Z,99522.06
2018-12-11T09:20:19.521Z,99526.65
2018-12-11T09:22:45.507Z,99485.33
2018-12-11T09:25:11.477Z,99544.63
2018-12-11T09:27:37.466Z,99532.94
2018-12-11T09:30:04.435Z,99546.71
2018-12-11T09:32:31.678Z,99545.09
2018-12-11T09:34:57.636Z,99545.53
2018-12-11T09:37:23.601Z,99546.85
2018-12-11T09:39:49.603Z,99550.16
2018-12-11T09:42:15.593Z,99533.41
2018-12-11T09:44:41.538Z,99539.34
2018-12-11T09:47:09.128Z,99545.97
2018-12-11T09:49:35.129Z,99545.16
2018-12-11T09:52:01.085Z,99548.15
2018-12-11T09:56:58.526Z,99551.00
2018-12-11T09:59:25.262Z,99549.28
2018-12-11T10:01:53.224Z,99552.83
2018-12-11T10:04:19.235Z,99550.41
2018-12-11T10:06:45.231Z,99543.13
2018-12-11T10:09:11.302Z,99550.33
2018-12-11T10:11:37.273Z,99546.06
2018-12-11T10:14:03.292Z,99547.30
2018-12-11T10:16:29.248Z,99553.59
2018-12-11T10:18:55.217Z,99563.82
2018-12-11T10:21:21.183Z,99548.77
2018-12-11T10:23:47.134Z,99560.85
2018-12-11T10:26:13.163Z,99570.10
2018-12-11T10:28:39.132Z,99562.80
2018-12-11T10:31:05.730Z,99559.87
2018-12-11T10:33:31.738Z,99570.77
2018-12-11T10:35:58.528Z,99570.11
2018-12-11T10:38:24.516Z,99572.10
2018-12-11T10:40:50.494Z,99572.19
2018-12-11T10:43:16.474Z,99562.14
2018-12-11T10:45:43.454Z,99573.30
2018-12-11T10:48:09.420Z,99568.34
2018-12-11T10:50:35.389Z,99567.89
2018-12-11T10:53:02.035Z,99570.45
2018-12-11T10:55:28.089Z,99578.72
2018-12-11T10:57:54.061Z,99576.24
2018-12-11T11:00:20.027Z,99582.19
2018-12-11T11:02:47.031Z,99579.59
2018-12-11T11:05:12.980Z,99579.78
2018-12-11T11:07:38.941Z,99586.16
2018-12-11T11:10:05.020Z,99585.33
2018-12-11T11:12:31.037Z,99583.46
2018-12-11T11:14:57.107Z,99593.16
2018-12-11T11:17:23.069Z,99596.93
2018-12-11T11:19:49.103Z,99596.48
2018-12-11T11:22:15.127Z,99597.77
2018-12-11T11:24:41.117Z,99598.52
2018-12-11T11:27:07.103Z,99596.06
2018-12-11T11:29:33.067Z,99595.97
2018-12-11T11:31:59.040Z,99606.59
2018-12-11T11:34:25.033Z,99604.48
2018-12-11T11:36:50.996Z,99608.41
2018-12-11T11:39:16.991Z,99597.53
2018-12-11T11:41:43.044Z,99612.56
2018-12-11T11:44:09.004Z,99613.00
2018-12-11T11:46:34.960Z,99616.58
2018-12-11T11:49:02.005Z,99612.91
2018-12-11T11:51:27.968Z,99618.42
2018-12-11T11:53:53.955Z,99608.78
2018-12-11T11:56:19.904Z,99617.69
2018-12-11T11:58:45.867Z,99610.59
2018-12-11T12:01:13.867Z,99615.94
2018-12-11T12:08:45.058Z,99630.31
2018-12-11T12:11:11.080Z,99632.34
2018-12-11T12:13:37.767Z,99631.93
2018-12-11T12:16:03.743Z,99626.39
2018-12-11T12:18:29.755Z,99617.09
2018-12-11T12:20:55.726Z,99630.95
2018-12-11T12:23:21.709Z,99631.03
2018-12-11T12:25:47.728Z,99642.39
2018-12-11T12:28:13.748Z,99642.40
2018-12-11T12:30:39.740Z,99634.05
2018-12-11T12:35:37.953Z,99645.23
2018-12-11T12:38:03.921Z,99633.24
2018-12-11T12:40:30.871Z,99653.20
2018-12-11T12:42:58.075Z,99648.66
2018-12-11T12:45:24.081Z,99645.41
2018-12-11T12:47:50.045Z,99641.61
2018-12-11T12:50:16.014Z,99646.54
2018-12-11T12:52:41.983Z,99646.12
2018-12-11T12:55:08.017Z,99648.72
2018-12-11T12:57:34.014Z,99659.66
2018-12-11T13:00:00.357Z,99654.98
2018-12-11T13:02:26.344Z,99656.75
2018-12-11T13:04:52.303Z,99659.27
2018-12-11T13:07:18.265Z,99659.56
2018-12-11T13:09:44.220Z,99662.93
2018-12-11T13:12:10.204Z,99665.67
2018-12-11T13:14:36.188Z,99665.86
2018-12-11T13:17:02.190Z,99674.64
2018-12-11T13:19:28.137Z,99674.23
2018-12-11T13:21:54.125Z,99673.85
2018-12-11T13:24:20.081Z,99682.55
2018-12-11T13:26:46.118Z,99678.80
2018-12-11T13:29:12.059Z,99684.77
2018-12-11T13:31:39.066Z,99689.81
2018-12-11T13:34:05.051Z,99697.09
2018-12-11T13:36:32.146Z,99687.35
2018-12-11T13:38:59.301Z,99691.52
2018-12-11T13:41:25.295Z,99705.03
2018-12-11T13:43:51.377Z,99708.39
2018-12-11T13:46:17.734Z,99706.30
2018-12-11T13:48:43.902Z,99704.27
2018-12-11T13:51:10.850Z,99709.22
2018-12-11T13:53:36.819Z,99705.82
2018-12-11T13:56:02.796Z,99712.55
2018-12-11T13:58:28.835Z,99715.52
2018-12-11T14:00:54.814Z,99728.56
2018-12-11T14:03:20.927Z,99725.06
2018-12-11T14:05:48.507Z,99725.55
2018-12-11T14:08:14.551Z,99724.27
2018-12-11T14:10:40.512Z,99724.69
2018-12-11T14:13:07.400Z,99734.37
2018-12-11T14:15:33.392Z,99737.45
2018-12-11T14:17:59.464Z,99733.23
2018-12-11T14:20:25.462Z,99741.63
2018-12-11T14:22:51.465Z,99749.87
2018-12-11T14:25:17.445Z,99742.46
2018-12-11T14:27:44.284Z,99737.09
2018-12-11T14:30:11.226Z,99747.64
2018-12-11T14:32:37.519Z,99750.89
2018-12-11T14:35:03.511Z,99736.73
2018-12-11T14:37:29.506Z,99755.64
2018-12-11T14:39:55.459Z,99760.44
2018-12-11T14:42:21.484Z,99748.94
2018-12-11T14:44:47.482Z,99748.53
2018-12-11T14:47:13.428Z,99758.42
2018-12-11T14:49:39.381Z,99758.52
2018-12-11T14:52:06.281Z,99745.52
2018-12-11T14:54:32.253Z,99755.80
2018-12-11T14:56:58.208Z,99744.39
2018-12-11T14:59:24.211Z,99743.56
2018-12-11T15:01:51.294Z,99752.08
2018-12-11T15:04:17.332Z,99752.03
2018-12-11T15:06:43.413Z,99753.97
2018-12-11T15:09:10.013Z,99761.97
2018-12-11T15:11:36.059Z,99756.72
2018-12-11T15:14:02.069Z,99764.70
2018-12-11T15:16:28.072Z,99767.14
2018-12-11T15:18:54.040Z,99761.02
2018-12-11T15:21:20.084Z,99762.97
2018-12-11T15:23:46.961Z,99768.73
2018-12-11T15:26:12.990Z,99765.86
2018-12-11T15:28:39.019Z,99753.67
2018-12-11T15:31:04.964Z,99766.21
2018-12-11T15:33:30.932Z,99764.69
2018-12-11T15:35:56.877Z,99770.34
2018-12-11T15:38:22.907Z,99766.00
2018-12-11T15:40:48.951Z,99770.70
2018-12-11T15:43:14.943Z,99776.11
2018-12-11T15:45:40.938Z,99775.81
2018-12-11T15:48:06.961Z,99779.55
2018-12-11T15:50:32.944Z,99780.71
2018-12-11T15:52:58.964Z,99774.42
2018-12-11T15:55:25.672Z,99766.94
2018-12-11T15:57:51.652Z,99774.53
2018-12-11T16:00:19.165Z,99780.01
2018-12-11T16:02:45.136Z,99781.63
2018-12-11T16:05:12.081Z,99774.80
2018-12-11T16:07:38.056Z,99789.19
2018-12-11T16:10:04.644Z,99787.92
2018-12-11T16:12:30.621Z,99793.75
2018-12-11T16:14:57.325Z,99794.66
2018-12-11T16:17:23.272Z,99795.63
2018-12-11T16:19:49.308Z,99798.25
2018-12-11T16:22:18.986Z,99799.05
2018-12-11T16:24:45.007Z,99801.69
2018-12-11T16:27:10.972Z,99809.82
2018-12-11T16:29:36.959Z,99805.11
2018-12-11T16:32:03.793Z,99805.56
2018-12-11T16:34:29.790Z,99805.46
2018-12-11T16:36:56.362Z,99805.09
2018-12-11T16:39:22.356Z,99806.23
2018-12-11T16:41:48.338Z,99806.98
2018-12-11T16:44:14.292Z,99806.12
2018-12-11T16:46:40.931Z,99808.42
2018-12-11T16:49:06.898Z,99811.13
2018-12-11T16:51:32.872Z,99810.20
2018-12-11T16:53:58.859Z,99815.48
2018-12-11T16:56:24.849Z,99809.66
2018-12-11T16:58:52.540Z,99810.50
2018-12-11T17:01:18.537Z,99818.78
2018-12-11T17:03:45.532Z,99827.03
2018-12-11T17:06:11.513Z,99829.92
2018-12-11T17:08:37.473Z,99834.72
2018-12-11T17:13:35.191Z,99834.63
2018-12-11T17:16:02.271Z,99837.06
2018-12-11T17:18:28.268Z,99840.23
2018-12-11T17:20:54.238Z,99843.02
2018-12-11T17:23:20.222Z,99844.94
2018-12-11T17:25:46.264Z,99851.05
2018-12-11T17:28:13.011Z,99848.95
2018-12-11T17:30:39.048Z,99840.38
2018-12-11T17:33:05.004Z,99852.83
2018-12-11T17:35:30.989Z,99846.02
2018-12-11T17:37:57.027Z,99848.17
2018-12-11T17:40:23.088Z,99847.52
2018-12-11T17:42:49.041Z,99846.53
2018-12-11T17:45:15.010Z,99848.89
2018-12-11T17:47:41.034Z,99853.98
2018-12-11T17:50:07.122Z,99857.59
2018-12-11T17:52:33.179Z,99857.98
2018-12-11T17:54:59.165Z,99859.45
2018-12-11T17:57:25.118Z,99861.36
2018-12-11T17:59:51.107Z,99857.82
2018-12-11T18:04:50.962Z,99856.08
2018-12-11T18:07:16.905Z,99860.14
2018-12-11T18:09:43.327Z,99861.32
2018-12-11T18:12:09.329Z,99853.92
2018-12-11T18:14:35.306Z,99866.86
2018-12-11T18:17:01.354Z,99859.89
2018-12-11T18:19:27.353Z,99865.62
2018-12-11T18:21:53.369Z,99870.96
2018-12-11T18:24:19.365Z,99870.11
2018-12-11T18:26:45.386Z,99870.44
2018-12-11T18:29:11.409Z,99867.89
2018-12-11T18:31:38.281Z,99873.93
2018-12-11T18:34:10.872Z,99876.00
2018-12-11T18:36:32.374Z,99879.88
2018-12-11T18:38:58.337Z,99874.19
2018-12-11T18:41:24.341Z,99878.48
2018-12-11T18:43:50.374Z,99878.80
2018-12-11T18:46:16.461Z,99884.94
2018-12-11T18:48:42.504Z,99882.52
2018-12-11T18:51:08.666Z,99874.68
2018-12-11T18:53:34.916Z,99881.50
2018-12-11T18:56:01.035Z,99881.11
2018-12-11T18:58:27.038Z,99886.02
2018-12-11T19:00:53.328Z,99877.67
2018-12-11T19:03:20.247Z,99883.47
2018-12-11T19:05:46.326Z,99891.50
2018-12-11T19:08:12.361Z,99879.41
2018-12-11T19:10:39.429Z,99892.45
2018-12-11T19:13:05.412Z,99884.86
2018-12-11T19:15:31.429Z,99891.48
2018-12-11T19:17:57.436Z,99888.79
2018-12-11T19:20:24.497Z,99886.20
2018-12-11T19:22:50.495Z,99888.66
2018-12-11T19:25:16.611Z,99892.45
2018-12-11T19:27:42.726Z,99898.48
2018-12-11T19:30:08.868Z,99893.83
2018-12-11T19:32:35.804Z,99901.77
2018-12-11T19:35:02.432Z,99895.17
2018-12-11T19:37:28.459Z,99902.69
2018-12-11T19:39:54.449Z,99898.68
2018-12-11T19:42:20.534Z,99888.76
2018-12-11T19:44:46.536Z,99893.55
2018-12-11T19:47:12.564Z,99898.40
2018-12-11T19:49:38.540Z,99900.77
2018-12-11T19:52:04.503Z,99901.34
2018-12-11T19:54:31.808Z,99901.25
2018-12-11T19:56:57.817Z,99902.02
2018-12-11T19:59:23.835Z,99898.73
2018-12-11T20:01:49.809Z,99907.88
2018-12-11T20:04:15.895Z,99909.94
2018-12-11T20:06:41.907Z,99898.77
2018-12-11T20:09:07.919Z,99904.83
2018-12-11T20:11:34.976Z,99893.80
2018-12-11T20:14:00.932Z,99907.42
2018-12-11T20:16:26.951Z,99904.89
2018-12-11T20:18:55.231Z,99908.00
2018-12-11T20:21:21.244Z,99907.86
2018-12-11T20:23:47.282Z,99905.44
2018-12-11T20:26:13.352Z,99901.17
2018-12-11T20:28:39.469Z,99912.13
2018-12-11T20:31:09.952Z,99918.11
2018-12-11T20:33:35.914Z,99918.32
2018-12-11T20:36:02.074Z,99923.50
2018-12-11T20:38:29.104Z,99922.67
2018-12-11T20:40:56.185Z,99927.18
2018-12-11T20:43:22.276Z,99932.84
2018-12-11T20:45:48.264Z,99926.23
2018-12-11T20:48:18.421Z,99924.59
2018-12-11T20:58:18.100Z,99930.85
2018-12-11T21:00:44.082Z,99924.78
2018-12-11T21:03:10.073Z,99920.27
2018-12-11T21:05:36.072Z,99928.81
2018-12-11T21:08:04.304Z,99932.95
2018-12-11T21:10:30.355Z,99932.70
2018-12-11T21:12:58.366Z,99930.37
2018-12-11T21:15:24.336Z,99933.16
2018-12-11T21:17:50.333Z,99931.95
2018-12-11T21:20:16.469Z,99932.81
2018-12-11T21:22:42.499Z,99936.17
2018-12-11T21:25:08.504Z,99933.23
2018-12-11T21:27:34.571Z,99941.02
2018-12-11T21:30:00.571Z,99938.65
2018-12-11T21:32:26.583Z,99935.05
2018-12-11T21:34:52.968Z,99935.66
2018-12-11T21:39:50.485Z,99947.44
2018-12-11T21:42:16.529Z,99947.47
2018-12-11T21:44:42.477Z,99952.63
2018-12-11T21:47:08.497Z,99948.94
2018-12-11T21:49:34.560Z,99958.73
2018-12-11T21:52:00.568Z,99961.56
2018-12-11T21:54:26.606Z,99963.16
2018-12-11T21:56:56.176Z,99965.81
2018-12-11T21:59:22.191Z,99961.59
2018-12-11T22:01:48.194Z,99969.14
2018-12-11T22:04:14.165Z,99977.86
2018-12-11T22:06:40.159Z,99970.09
2018-12-11T22:09:06.153Z,99969.59
2018-12-11T22:11:32.216Z,99974.22
2018-12-11T22:13:58.170Z,99985.19
2018-12-11T22:16:24.136Z,99990.08
2018-12-11T22:18:50.131Z,99980.34
2018-12-11T22:21:16.111Z,99996.59
2018-12-11T22:23:42.089Z,99996.79
2018-12-11T22:26:08.084Z,99999.10
2018-12-11T22:28:34.081Z,100003.59
2018-12-11T22:31:00.081Z,100007.08
2018-12-11T22:33:26.089Z,100003.80
2018-12-11T22:35:52.057Z,100003.11
2018-12-11T22:38:18.084Z,100005.09
2018-12-11T22:40:44.186Z,100006.61
2018-12-11T22:43:10.166Z,99999.80
2018-12-11T22:45:36.140Z,100008.16
2018-12-11T22:48:02.111Z,100007.80
2018-12-11T22:50:28.114Z,100009.45
2018-12-11T22:52:54.233Z,100014.64
2018-12-11T22:55:20.210Z,100023.07
2018-12-11T22:57:46.165Z,100023.83
2018-12-11T23:00:12.341Z,100022.93
2018-12-11T23:02:38.336Z,100020.41
2018-12-11T23:05:04.319Z,100025.08
2018-12-11T23:07:30.321Z,100026.57
2018-12-11T23:09:56.290Z,100030.52
2018-12-11T23:12:22.241Z,100024.98
2018-12-11T23:14:48.191Z,100030.52
2018-12-11T23:17:14.149Z,100028.66
2018-12-11T23:19:40.133Z,100034.34
2018-12-11T23:22:06.184Z,100030.00
2018-12-11T23:24:32.147Z,100028.69
2018-12-11T23:26:58.147Z,100027.03
2018-12-11T23:29:24.096Z,100029.28
2018-12-11T23:31:50.055Z,100027.48
2018-12-11T23:34:16.037Z,100032.84
2018-12-11T23:36:42.010Z,100036.61
2018-12-11T23:39:07.994Z,100038.61
2018-12-11T23:41:34.098Z,100045.64
2018-12-11T23:44:00.068Z,100051.97
2018-12-11T23:46:26.118Z,100048.37
2018-12-11T23:48:52.081Z,100047.11
2018-12-11T23:51:18.029Z,100052.23
2018-12-11T23:53:44.030Z,100054.94
2018-12-11T23:56:09.988Z,100057.34
2018-12-11T23:58:35.944Z,100060.48
